Time;durP1;ratioP1;P1;durP2;ratioP2;P2;SDS_P1;SDS_P2;PMS_P1;PMS_P2;Temp;Humidity;BMP_temperature;BMP_pressure;BME280_temperature;BME280_humidity;BME280_pressure;Samples;Min_cycle;Max_cycle;Signal;HPM_P1;HPM_P2
2023/11/05 00:00:57;;;;;;;1.88;0.70;;;9.90;99.90;;;;;;4994483;28;20509;-78
2023/11/05 00:03:43;;;;;;;1.75;0.70;;;9.90;99.90;;;;;;4968504;28;20133;-78
2023/11/05 00:06:31;;;;;;;1.85;0.70;;;9.90;99.90;;;;;;4967056;28;20058;-78
2023/11/05 00:09:18;;;;;;;2.30;0.70;;;9.90;99.90;;;;;;4959408;28;20042;-78
2023/11/05 00:12:04;;;;;;;2.95;0.60;;;9.90;99.90;;;;;;4963329;28;20046;-78
2023/11/05 00:14:50;;;;;;;3.00;0.60;;;9.90;99.90;;;;;;4975683;28;20046;-78
2023/11/05 00:17:36;;;;;;;2.38;0.80;;;9.80;99.90;;;;;;4982732;28;20371;-78
2023/11/05 00:20:22;;;;;;;2.38;0.85;;;9.80;99.90;;;;;;4995370;28;20057;-78
2023/11/05 00:23:08;;;;;;;1.17;0.50;;;9.80;99.90;;;;;;4994569;28;20035;-78
2023/11/05 00:25:55;;;;;;;4.03;0.90;;;9.80;99.90;;;;;;4980785;28;20045;-78
2023/11/05 00:28:41;;;;;;;1.20;0.57;;;9.70;99.90;;;;;;4951654;28;20057;-78
2023/11/05 00:31:27;;;;;;;1.13;0.50;;;9.70;99.90;;;;;;4946422;28;20043;-78
2023/11/05 00:34:13;;;;;;;0.95;0.45;;;9.60;99.90;;;;;;4960369;28;20129;-78
2023/11/05 00:36:59;;;;;;;1.77;0.70;;;9.60;99.90;;;;;;4966733;28;20440;-78
2023/11/05 00:39:45;;;;;;;2.10;0.70;;;9.60;99.90;;;;;;4940715;28;20042;-78
2023/11/05 00:42:31;;;;;;;1.10;0.52;;;9.60;99.90;;;;;;4966502;28;20363;-78
2023/11/05 00:45:17;;;;;;;2.55;0.50;;;9.60;99.90;;;;;;4961442;28;20042;-78
2023/11/05 00:48:04;;;;;;;0.50;0.40;;;9.60;99.90;;;;;;4969819;28;20038;-79
2023/11/05 00:50:50;;;;;;;0.88;0.40;;;9.60;99.90;;;;;;4968042;28;20044;-78
2023/11/05 00:53:37;;;;;;;1.55;0.50;;;9.60;99.90;;;;;;4935942;28;20052;-78
2023/11/05 00:56:23;;;;;;;1.73;0.50;;;9.60;99.90;;;;;;4997223;28;20038;-77
2023/11/05 00:59:09;;;;;;;2.97;0.68;;;9.70;99.90;;;;;;4987175;28;20061;-78
2023/11/05 01:01:57;;;;;;;1.38;0.68;;;9.70;99.90;;;;;;4960462;28;20050;-78
2023/11/05 01:04:43;;;;;;;1.38;0.57;;;9.60;99.90;;;;;;4967102;28;20463;-78
2023/11/05 01:07:30;;;;;;;1.90;0.50;;;9.60;99.90;;;;;;4980720;28;20042;-78
2023/11/05 01:10:16;;;;;;;2.42;0.55;;;9.60;99.90;;;;;;4977124;28;20034;-78
2023/11/05 01:13:02;;;;;;;2.25;0.60;;;9.60;99.90;;;;;;4948814;28;20528;-78
2023/11/05 01:15:48;;;;;;;2.40;0.65;;;9.60;99.90;;;;;;4978770;28;20488;-79
2023/11/05 01:18:34;;;;;;;1.73;0.60;;;9.60;99.90;;;;;;4956703;28;20042;-78
2023/11/05 01:21:20;;;;;;;2.67;0.70;;;9.60;99.90;;;;;;4967855;28;20052;-78
2023/11/05 01:24:07;;;;;;;1.02;0.50;;;9.70;99.90;;;;;;4962652;28;20054;-78
2023/11/05 01:26:53;;;;;;;1.63;0.52;;;9.70;99.90;;;;;;4970834;28;20034;-78
2023/11/05 01:29:39;;;;;;;0.75;0.50;;;9.70;99.90;;;;;;4964164;28;20158;-78
2023/11/05 01:32:25;;;;;;;0.70;0.60;;;9.70;99.90;;;;;;4949446;28;20043;-78
2023/11/05 01:35:11;;;;;;;3.67;0.73;;;9.80;99.90;;;;;;4974407;28;20424;-77
2023/11/05 01:37:56;;;;;;;1.95;0.50;;;9.80;99.90;;;;;;4958933;28;20105;-78
2023/11/05 01:40:42;;;;;;;1.45;0.50;;;9.80;99.90;;;;;;4954426;28;20375;-78
2023/11/05 01:43:28;;;;;;;1.20;0.60;;;9.80;99.90;;;;;;4970107;28;20034;-78
2023/11/05 01:46:14;;;;;;;0.85;0.60;;;9.80;99.90;;;;;;4970164;28;20046;-78
2023/11/05 01:49:00;;;;;;;7.72;0.60;;;9.80;99.90;;;;;;4969562;28;20760;-78
2023/11/05 01:51:47;;;;;;;1.02;0.40;;;9.80;99.90;;;;;;4979155;28;20134;-78
2023/11/05 01:54:33;;;;;;;2.15;0.77;;;9.80;99.90;;;;;;4957955;28;20084;-78
2023/11/05 01:57:19;;;;;;;2.45;0.70;;;9.80;99.90;;;;;;4957500;28;20573;-77
2023/11/05 02:00:05;;;;;;;1.52;0.60;;;9.80;99.90;;;;;;4984341;28;20035;-78
2023/11/05 02:02:51;;;;;;;3.13;0.50;;;9.80;99.90;;;;;;4969782;28;20541;-78
2023/11/05 02:05:37;;;;;;;1.17;0.60;;;9.80;99.90;;;;;;4970693;28;20042;-78
2023/11/05 02:08:23;;;;;;;1.45;0.60;;;9.90;99.90;;;;;;4958086;28;20471;-78
2023/11/05 02:11:09;;;;;;;2.70;0.75;;;9.80;99.90;;;;;;4969872;28;20046;-78
2023/11/05 02:13:55;;;;;;;1.42;0.60;;;9.90;99.90;;;;;;4996027;28;20038;-78
2023/11/05 02:16:41;;;;;;;4.40;0.93;;;9.90;99.90;;;;;;4957114;28;20121;-75
2023/11/05 02:19:27;;;;;;;5.75;0.85;;;9.90;99.90;;;;;;4980996;28;20053;-75
2023/11/05 02:22:14;;;;;;;2.08;0.82;;;9.90;99.90;;;;;;4956247;29;20055;-74
2023/11/05 02:25:00;;;;;;;2.20;0.60;;;10.00;99.90;;;;;;4949347;28;20030;-75
2023/11/05 02:27:48;;;;;;;1.30;0.70;;;10.00;99.90;;;;;;4942830;28;20090;-75
2023/11/05 02:30:34;;;;;;;;;;;10.00;99.90;;;;;;4956871;29;20047;-74
2023/11/05 02:33:21;;;;;;;3.97;0.70;;;10.00;99.90;;;;;;4937138;28;20357;-75
2023/11/05 02:36:09;;;;;;;2.35;0.65;;;10.00;99.90;;;;;;4951611;29;20046;-75
2023/11/05 02:38:55;;;;;;;;;;;10.00;99.90;;;;;;4924970;28;20652;-75
2023/11/05 02:41:41;;;;;;;2.58;0.90;;;10.00;99.90;;;;;;4962697;28;19941;-74
2023/11/05 02:44:27;;;;;;;4.28;1.30;;;10.10;99.90;;;;;;4935113;28;20606;-74
2023/11/05 02:47:13;;;;;;;5.88;0.85;;;10.10;99.90;;;;;;4944150;28;20042;-75
2023/11/05 02:49:59;;;;;;;3.45;0.80;;;10.10;99.90;;;;;;4955100;28;20422;-76
2023/11/05 02:52:45;;;;;;;3.70;0.68;;;10.10;99.90;;;;;;4964916;28;20149;-75
2023/11/05 02:55:31;;;;;;;2.55;0.70;;;10.10;99.90;;;;;;4933403;28;20046;-76
2023/11/05 02:58:17;;;;;;;5.07;0.75;;;10.10;99.90;;;;;;4956565;28;20061;-76
2023/11/05 03:01:03;;;;;;;1.63;0.65;;;10.10;99.90;;;;;;4962463;28;20042;-76
2023/11/05 03:03:51;;;;;;;3.60;0.80;;;10.00;99.90;;;;;;4953006;28;20170;-76
2023/11/05 03:06:37;;;;;;;2.40;0.82;;;10.10;99.90;;;;;;4939501;28;20121;-76
2023/11/05 03:09:25;;;;;;;2.65;0.90;;;10.10;99.90;;;;;;4957532;28;20439;-75
2023/11/05 03:12:12;;;;;;;2.45;0.88;;;10.10;99.90;;;;;;4935936;29;20451;-76
2023/11/05 03:14:58;;;;;;;2.20;0.70;;;10.10;99.90;;;;;;4954349;28;20078;-75
2023/11/05 03:17:44;;;;;;;2.45;0.70;;;10.10;99.90;;;;;;4971577;28;20500;-76
2023/11/05 03:20:30;;;;;;;2.15;0.57;;;10.10;99.90;;;;;;4981830;28;20058;-76
2023/11/05 03:23:17;;;;;;;5.32;0.80;;;10.10;99.90;;;;;;4963987;28;20073;-76
2023/11/05 03:26:04;;;;;;;4.93;1.05;;;10.00;99.90;;;;;;4954803;28;20113;-76
2023/11/05 03:28:50;;;;;;;5.20;1.02;;;10.00;99.90;;;;;;4951334;28;20348;-76
2023/11/05 03:31:36;;;;;;;4.03;0.95;;;10.00;99.90;;;;;;4993473;28;20517;-75
2023/11/05 03:34:22;;;;;;;2.78;0.93;;;10.00;99.90;;;;;;4965147;28;20057;-75
2023/11/05 03:37:08;;;;;;;6.75;1.25;;;10.00;99.90;;;;;;4975229;28;20080;-75
2023/11/05 03:39:53;;;;;;;3.03;0.88;;;10.10;99.90;;;;;;4971683;28;20046;-75
2023/11/05 03:42:39;;;;;;;2.75;0.80;;;10.10;99.90;;;;;;4971909;28;20046;-75
2023/11/05 03:45:25;;;;;;;6.78;1.33;;;10.10;99.90;;;;;;4969415;28;20531;-75
2023/11/05 03:48:12;;;;;;;4.43;1.00;;;10.10;99.90;;;;;;4992679;28;20038;-76
2023/11/05 03:50:58;;;;;;;4.53;1.05;;;10.10;99.90;;;;;;4978677;28;20030;-75
2023/11/05 03:53:45;;;;;;;4.95;1.60;;;10.10;99.90;;;;;;4967470;28;20360;-76
2023/11/05 03:56:31;;;;;;;4.00;1.00;;;10.20;99.90;;;;;;4967817;28;20509;-76
2023/11/05 03:59:17;;;;;;;5.43;1.05;;;10.20;99.90;;;;;;4961203;28;20050;-76
2023/11/05 04:02:04;;;;;;;5.93;1.08;;;10.20;99.90;;;;;;4995450;28;20439;-75
2023/11/05 04:04:51;;;;;;;3.75;1.40;;;10.20;99.90;;;;;;4972916;28;20053;-76
2023/11/05 04:07:37;;;;;;;4.35;1.00;;;10.20;99.90;;;;;;4979278;28;20140;-75
2023/11/05 04:10:23;;;;;;;6.18;1.00;;;10.20;99.90;;;;;;4958093;28;20120;-75
2023/11/05 04:13:09;;;;;;;6.13;1.45;;;10.20;99.90;;;;;;4974915;28;20038;-76
2023/11/05 04:15:55;;;;;;;5.43;1.63;;;10.20;99.90;;;;;;4961932;28;20097;-76
2023/11/05 04:18:41;;;;;;;6.18;1.50;;;10.20;99.90;;;;;;4976178;28;20471;-76
2023/11/05 04:21:27;;;;;;;4.13;0.80;;;10.20;99.90;;;;;;4991810;28;20116;-76
2023/11/05 04:24:13;;;;;;;3.45;0.90;;;10.30;99.90;;;;;;4980123;28;20034;-76
2023/11/05 04:26:59;;;;;;;4.93;1.30;;;10.30;99.90;;;;;;4993934;28;20046;-76
2023/11/05 04:29:45;;;;;;;4.97;1.10;;;10.30;99.90;;;;;;4934695;28;20137;-76
2023/11/05 04:32:31;;;;;;;7.28;1.30;;;10.30;99.90;;;;;;4969637;28;20388;-76
2023/11/05 04:35:17;;;;;;;4.97;2.13;;;10.30;99.90;;;;;;4993165;28;20042;-76
2023/11/05 04:38:03;;;;;;;8.23;1.48;;;10.30;99.90;;;;;;4967521;28;20045;-76
2023/11/05 04:40:49;;;;;;;7.43;1.08;;;10.30;99.90;;;;;;4967678;28;20042;-76
2023/11/05 04:43:35;;;;;;;5.68;1.23;;;10.40;99.90;;;;;;4994256;28;20073;-76
2023/11/05 04:46:21;;;;;;;6.85;1.63;;;10.40;99.90;;;;;;4954074;28;20046;-75
2023/11/05 04:49:07;;;;;;;4.47;1.20;;;10.40;99.90;;;;;;4966294;28;20046;-75
2023/11/05 04:51:52;;;;;;;8.85;1.15;;;10.40;99.90;;;;;;4975827;28;20046;-76
2023/11/05 04:54:42;;;;;;;2.95;0.77;;;10.40;99.90;;;;;;4970257;28;20467;-76
2023/11/05 04:57:28;;;;;;;6.32;1.33;;;10.40;99.90;;;;;;4982953;28;20081;-75
2023/11/05 05:00:14;;;;;;;4.38;1.20;;;10.40;99.90;;;;;;4984540;28;20074;-76
2023/11/05 05:03:00;;;;;;;7.03;1.23;;;10.40;99.90;;;;;;4974862;28;20105;-76
2023/11/05 05:05:46;;;;;;;6.03;1.40;;;10.40;99.90;;;;;;4988802;28;20034;-75
2023/11/05 05:08:32;;;;;;;5.97;1.05;;;10.40;99.90;;;;;;4968067;28;20053;-76
2023/11/05 05:11:18;;;;;;;6.05;1.00;;;10.30;99.90;;;;;;4966172;28;20133;-75
2023/11/05 05:14:04;;;;;;;4.88;1.00;;;10.30;99.90;;;;;;4983576;28;20046;-76
2023/11/05 05:16:50;;;;;;;8.35;0.85;;;10.30;99.90;;;;;;4997492;28;20146;-76
2023/11/05 05:19:36;;;;;;;3.67;1.10;;;10.30;99.90;;;;;;4997100;28;20077;-76
2023/11/05 05:22:22;;;;;;;8.10;1.30;;;10.30;99.90;;;;;;4996054;28;20050;-75
2023/11/05 05:25:10;;;;;;;4.22;1.67;;;10.30;99.90;;;;;;4990321;28;20089;-75
2023/11/05 05:27:56;;;;;;;4.30;1.07;;;10.30;99.90;;;;;;4998306;28;20481;-76
2023/11/05 05:30:42;;;;;;;8.60;1.20;;;10.30;99.90;;;;;;4971300;28;20129;-75
2023/11/05 05:33:28;;;;;;;6.53;1.10;;;10.30;99.90;;;;;;4993507;28;20120;-76
2023/11/05 05:36:14;;;;;;;6.72;1.10;;;10.30;99.90;;;;;;4967310;28;20042;-75
2023/11/05 05:39:01;;;;;;;8.25;1.10;;;10.20;99.90;;;;;;4956892;28;20042;-75
2023/11/05 05:41:47;;;;;;;7.57;1.23;;;10.20;99.90;;;;;;4971892;28;20074;-75
2023/11/05 05:44:33;;;;;;;5.75;1.48;;;10.20;99.90;;;;;;4971017;28;20124;-75
2023/11/05 05:47:19;;;;;;;5.00;0.98;;;10.10;99.90;;;;;;4968204;28;20099;-75
2023/11/05 05:50:08;;;;;;;10.65;1.13;;;10.20;99.90;;;;;;5001756;28;20046;-75
2023/11/05 05:52:54;;;;;;;3.67;1.13;;;10.10;99.90;;;;;;4996122;28;20479;-75
2023/11/05 05:55:41;;;;;;;7.43;1.05;;;10.10;99.90;;;;;;4996914;28;20540;-74
2023/11/05 05:58:28;;;;;;;8.30;2.03;;;10.10;99.90;;;;;;4952656;28;20046;-74
2023/11/05 06:01:14;;;;;;;4.68;1.20;;;10.10;99.90;;;;;;4980636;28;20329;-74
2023/11/05 06:04:00;;;;;;;4.93;1.05;;;10.10;99.90;;;;;;4983733;28;20065;-74
2023/11/05 06:06:46;;;;;;;7.13;1.30;;;10.00;99.90;;;;;;4966167;28;20057;-74
2023/11/05 06:09:32;;;;;;;5.72;1.20;;;9.90;99.90;;;;;;4976795;28;20096;-75
2023/11/05 06:12:18;;;;;;;6.55;1.23;;;9.90;99.90;;;;;;4962999;28;20050;-74
2023/11/05 06:15:06;;;;;;;7.80;1.20;;;9.90;99.90;;;;;;4962077;28;20038;-75
2023/11/05 06:17:52;;;;;;;4.15;0.95;;;9.90;99.90;;;;;;4954745;28;20050;-75
2023/11/05 06:20:38;;;;;;;7.75;1.20;;;9.90;99.90;;;;;;4991712;28;20050;-75
2023/11/05 06:23:24;;;;;;;4.03;1.00;;;9.80;99.90;;;;;;4976500;28;20034;-75
2023/11/05 06:26:10;;;;;;;6.53;1.13;;;9.80;99.90;;;;;;4968840;28;20117;-75
2023/11/05 06:28:56;;;;;;;5.28;0.95;;;9.80;99.90;;;;;;4996226;28;20418;-75
2023/11/05 06:31:42;;;;;;;7.88;2.05;;;9.80;99.90;;;;;;4948147;28;20375;-75
2023/11/05 06:34:27;;;;;;;7.72;0.90;;;9.80;99.90;;;;;;4994778;28;20042;-75
2023/11/05 06:37:13;;;;;;;4.22;0.80;;;9.80;99.90;;;;;;4993573;28;20046;-75
2023/11/05 06:40:00;;;;;;;3.33;0.85;;;9.80;99.90;;;;;;4968786;28;20144;-75
2023/11/05 06:42:46;;;;;;;2.75;1.13;;;9.80;99.90;;;;;;4977409;28;20070;-75
2023/11/05 06:45:32;;;;;;;3.25;0.85;;;9.80;99.90;;;;;;4952975;28;20042;-75
2023/11/05 06:48:18;;;;;;;5.40;1.30;;;9.70;99.90;;;;;;4984983;28;20497;-75
2023/11/05 06:51:04;;;;;;;6.15;1.20;;;9.70;99.90;;;;;;4968224;28;20073;-75
2023/11/05 06:53:50;;;;;;;3.72;0.80;;;9.70;99.90;;;;;;4981423;28;20066;-75
2023/11/05 06:56:36;;;;;;;3.83;0.90;;;9.80;99.90;;;;;;4961577;28;20148;-75
2023/11/05 06:59:23;;;;;;;4.38;0.82;;;9.70;99.90;;;;;;4979434;28;20356;-75
2023/11/05 07:02:10;;;;;;;6.35;1.58;;;9.70;99.90;;;;;;5001165;28;20030;-75
2023/11/05 07:04:58;;;;;;;4.07;1.20;;;9.80;99.90;;;;;;4947888;28;20181;-76
2023/11/05 07:07:44;;;;;;;5.70;0.98;;;9.80;99.90;;;;;;4968353;28;20030;-76
2023/11/05 07:10:31;;;;;;;3.65;0.65;;;9.70;99.90;;;;;;4992990;28;20046;-75
2023/11/05 07:13:18;;;;;;;3.72;0.85;;;9.80;99.90;;;;;;4965522;28;20042;-76
2023/11/05 07:16:05;;;;;;;3.78;0.98;;;9.80;99.90;;;;;;4967304;28;20073;-75
2023/11/05 07:18:52;;;;;;;3.47;1.25;;;9.80;99.90;;;;;;4993261;28;20046;-76
2023/11/05 07:21:38;;;;;;;3.30;1.10;;;9.90;99.90;;;;;;4966249;28;20716;-76
2023/11/05 07:24:24;;;;;;;3.35;0.85;;;9.90;99.90;;;;;;4991237;28;20073;-75
2023/11/05 07:27:10;;;;;;;7.78;1.92;;;9.90;99.90;;;;;;4972226;28;20188;-75
2023/11/05 07:29:56;;;;;;;3.38;0.73;;;9.90;99.90;;;;;;4976235;28;20199;-75
2023/11/05 07:32:42;;;;;;;5.07;1.30;;;9.90;99.90;;;;;;4959589;28;20045;-75
2023/11/05 07:35:28;;;;;;;5.38;1.40;;;9.90;99.90;;;;;;4978677;28;20427;-75
2023/11/05 07:38:14;;;;;;;3.53;1.10;;;9.80;99.90;;;;;;4967408;28;20053;-74
2023/11/05 07:41:00;;;;;;;3.15;0.73;;;9.90;99.90;;;;;;4978671;28;20054;-75
2023/11/05 07:43:47;;;;;;;3.35;0.70;;;9.90;99.90;;;;;;4947910;28;20047;-75
2023/11/05 07:46:35;;;;;;;2.85;0.82;;;9.90;99.90;;;;;;4981111;28;20041;-74
2023/11/05 07:49:22;;;;;;;4.90;1.42;;;10.00;99.90;;;;;;4966032;28;20050;-75
2023/11/05 07:52:08;;;;;;;3.85;1.30;;;10.00;99.90;;;;;;4966528;28;20060;-75
2023/11/05 07:54:57;;;;;;;3.42;0.80;;;10.00;99.90;;;;;;4966861;28;20074;-74
2023/11/05 07:57:43;;;;;;;2.70;0.90;;;10.00;99.90;;;;;;4978781;28;20052;-74
2023/11/05 08:00:29;;;;;;;5.63;0.60;;;10.10;99.90;;;;;;4966138;28;20085;-75
2023/11/05 08:03:15;;;;;;;2.22;0.90;;;10.10;99.90;;;;;;4983087;28;20380;-74
2023/11/05 08:06:01;;;;;;;2.42;0.90;;;10.10;99.90;;;;;;4985712;28;20041;-74
2023/11/05 08:08:51;;;;;;;3.95;1.05;;;10.10;99.90;;;;;;4967263;28;20363;-74
2023/11/05 08:11:37;;;;;;;2.08;0.65;;;10.10;99.90;;;;;;4979487;28;20078;-74
2023/11/05 08:14:23;;;;;;;3.33;0.80;;;10.20;99.90;;;;;;4965230;28;20046;-75
2023/11/05 08:17:09;;;;;;;3.63;0.85;;;10.10;99.90;;;;;;4952183;28;20080;-75
2023/11/05 08:19:55;;;;;;;3.22;1.15;;;10.10;99.90;;;;;;4986218;28;20430;-75
2023/11/05 08:22:42;;;;;;;3.22;1.25;;;10.10;99.90;;;;;;4990394;28;20073;-75
2023/11/05 08:25:28;;;;;;;4.40;0.80;;;10.10;99.90;;;;;;4978798;28;20046;-75
2023/11/05 08:28:15;;;;;;;3.10;0.90;;;10.20;99.90;;;;;;4977781;28;20038;-76
2023/11/05 08:31:02;;;;;;;3.15;0.93;;;10.20;99.90;;;;;;4972973;28;20042;-76
2023/11/05 08:33:49;;;;;;;2.17;0.90;;;10.20;99.90;;;;;;4968364;28;20085;-76
2023/11/05 08:36:35;;;;;;;2.90;0.85;;;10.20;99.90;;;;;;4956357;28;20129;-75
2023/11/05 08:39:21;;;;;;;4.03;0.60;;;10.20;99.90;;;;;;4976225;28;20046;-75
2023/11/05 08:42:07;;;;;;;4.10;0.93;;;10.30;99.90;;;;;;4985919;28;20089;-75
2023/11/05 08:44:53;;;;;;;3.65;0.98;;;10.30;99.90;;;;;;4956191;28;20038;-76
2023/11/05 08:47:39;;;;;;;4.00;1.00;;;10.30;99.90;;;;;;4992830;28;20180;-76
2023/11/05 08:50:25;;;;;;;2.70;0.80;;;10.30;99.90;;;;;;4949159;28;20092;-75
2023/11/05 08:53:12;;;;;;;5.07;0.95;;;10.40;99.90;;;;;;4966397;28;20133;-75
2023/11/05 08:55:58;;;;;;;3.15;0.80;;;10.30;99.90;;;;;;4991150;28;20059;-76
2023/11/05 08:58:44;;;;;;;4.10;0.70;;;10.40;99.90;;;;;;4978771;28;20046;-75
2023/11/05 09:01:31;;;;;;;3.05;1.10;;;10.40;99.90;;;;;;4971008;28;20103;-75
2023/11/05 09:04:17;;;;;;;2.20;1.05;;;10.40;99.90;;;;;;4964474;28;20049;-75
2023/11/05 09:07:03;;;;;;;2.45;0.80;;;10.50;99.90;;;;;;4965844;28;20045;-76
2023/11/05 09:09:50;;;;;;;3.85;0.90;;;10.50;99.90;;;;;;4960400;28;20137;-76
2023/11/05 09:12:36;;;;;;;2.17;0.90;;;10.60;99.90;;;;;;5007585;28;20042;-74
2023/11/05 09:15:22;;;;;;;4.13;0.90;;;10.60;99.90;;;;;;4998503;28;20535;-75
2023/11/05 09:18:08;;;;;;;3.38;0.85;;;10.70;99.90;;;;;;4974345;28;20046;-75
2023/11/05 09:20:56;;;;;;;4.80;1.00;;;10.80;99.90;;;;;;4946018;28;20129;-75
2023/11/05 09:23:43;;;;;;;2.05;0.65;;;10.90;99.90;;;;;;4972800;28;20042;-75
2023/11/05 09:26:29;;;;;;;2.50;0.85;;;11.00;99.90;;;;;;4979047;28;20097;-75
2023/11/05 09:29:15;;;;;;;1.85;0.65;;;11.10;99.90;;;;;;4966117;28;20042;-75
2023/11/05 09:32:02;;;;;;;2.25;0.75;;;11.10;99.90;;;;;;4983647;28;20371;-76
2023/11/05 09:34:48;;;;;;;2.47;0.60;;;11.10;99.90;;;;;;4984193;28;20065;-75
2023/11/05 09:37:34;;;;;;;3.03;0.63;;;11.20;99.90;;;;;;4947365;28;20258;-75
2023/11/05 09:40:20;;;;;;;2.95;0.52;;;11.20;99.90;;;;;;4968981;28;20078;-72
2023/11/05 09:43:09;;;;;;;2.35;0.77;;;11.20;99.90;;;;;;4980231;28;20487;-74
2023/11/05 09:45:56;;;;;;;1.85;0.65;;;11.30;99.90;;;;;;4968575;28;20038;-72
2023/11/05 09:48:42;;;;;;;1.63;0.50;;;11.40;99.90;;;;;;4967987;28;20041;-75
2023/11/05 09:51:28;;;;;;;2.58;0.70;;;11.40;99.90;;;;;;4977520;28;20077;-75
2023/11/05 09:54:14;;;;;;;2.67;0.75;;;11.40;99.90;;;;;;4993740;28;20038;-74
2023/11/05 09:57:02;;;;;;;1.20;0.60;;;11.40;99.90;;;;;;4974885;28;20038;-75
2023/11/05 09:59:48;;;;;;;1.05;0.60;;;11.50;99.90;;;;;;4994687;28;20050;-75
2023/11/05 10:02:55;;;;;;;1.17;0.50;;;11.60;99.90;;;;;;4972956;28;20505;-75
2023/11/05 10:05:43;;;;;;;2.30;0.57;;;11.60;99.90;;;;;;4969733;28;20046;-75
2023/11/05 10:08:33;;;;;;;1.52;0.60;;;11.60;99.90;;;;;;4948543;28;20034;-75
2023/11/05 10:11:19;;;;;;;1.48;0.60;;;11.70;99.90;;;;;;4943143;28;20053;-75
2023/11/05 10:14:05;;;;;;;1.42;0.45;;;11.70;99.90;;;;;;4977512;28;20128;-75
2023/11/05 10:16:53;;;;;;;1.60;0.85;;;11.70;99.90;;;;;;4983600;28;20042;-76
2023/11/05 10:19:40;;;;;;;2.45;0.70;;;11.70;99.90;;;;;;4969872;28;20041;-75
2023/11/05 10:22:28;;;;;;;2.15;0.85;;;11.80;99.90;;;;;;4951401;28;20093;-75
2023/11/05 10:25:20;;;;;;;1.50;0.70;;;11.80;99.90;;;;;;4996817;28;20038;-75
2023/11/05 10:28:06;;;;;;;2.13;0.60;;;11.80;99.90;;;;;;4984198;28;20498;-76
2023/11/05 10:30:52;;;;;;;2.13;0.68;;;11.70;99.90;;;;;;4974434;28;20046;-75
2023/11/05 10:33:38;;;;;;;1.40;0.60;;;11.70;99.90;;;;;;4968970;28;20046;-75
2023/11/05 10:36:25;;;;;;;1.60;0.60;;;11.70;99.90;;;;;;4968332;28;20044;-75
2023/11/05 10:39:11;;;;;;;1.87;0.87;;;11.70;99.90;;;;;;4956145;28;20808;-76
2023/11/05 10:42:00;;;;;;;2.15;0.88;;;11.70;99.90;;;;;;4968788;28;20125;-76
2023/11/05 10:44:45;;;;;;;1.13;0.55;;;11.70;99.90;;;;;;4977903;28;20117;-76
2023/11/05 10:47:31;;;;;;;1.98;0.50;;;11.70;99.90;;;;;;4966972;28;20034;-76
2023/11/05 10:50:24;;;;;;;3.75;0.70;;;11.80;99.90;;;;;;4966940;28;20042;-75
2023/11/05 10:53:10;;;;;;;4.50;1.52;;;11.80;99.90;;;;;;4995362;28;20057;-75
2023/11/05 10:55:57;;;;;;;3.58;1.20;;;11.80;99.90;;;;;;4967976;28;20038;-75
2023/11/05 10:58:44;;;;;;;3.45;1.67;;;11.90;99.90;;;;;;4971259;28;20046;-76
2023/11/05 11:01:31;;;;;;;2.50;0.60;;;11.90;99.90;;;;;;4976676;28;20053;-74
2023/11/05 11:04:20;;;;;;;4.80;1.55;;;11.80;99.90;;;;;;4960487;28;20459;-74
2023/11/05 11:07:06;;;;;;;1.20;0.70;;;11.80;99.90;;;;;;4951802;28;20034;-75
2023/11/05 11:09:52;;;;;;;2.17;0.90;;;11.70;99.90;;;;;;4946711;28;20052;-74
2023/11/05 11:12:38;;;;;;;1.60;0.63;;;11.70;99.90;;;;;;4996171;28;20411;-74
2023/11/05 11:15:35;;;;;;;3.50;0.90;;;11.70;99.90;;;;;;4976926;28;20042;-74
2023/11/05 11:18:26;;;;;;;1.85;0.50;;;11.70;99.90;;;;;;4966969;28;20109;-74
2023/11/05 11:21:12;;;;;;;2.50;0.60;;;11.80;99.90;;;;;;4979152;28;20049;-74
2023/11/05 11:24:23;;;;;;;2.17;1.00;;;11.80;99.90;;;;;;4959689;28;20073;-74
2023/11/05 11:27:12;;;;;;;4.53;1.20;;;11.80;99.90;;;;;;5007591;28;20034;-74
2023/11/05 11:29:59;;;;;;;2.53;0.70;;;11.90;99.90;;;;;;4969602;28;20046;-74
2023/11/05 11:32:45;;;;;;;4.43;0.70;;;11.90;99.90;;;;;;4955873;28;20056;-74
2023/11/05 11:35:31;;;;;;;2.05;0.80;;;11.90;99.90;;;;;;4974920;28;20097;-74
2023/11/05 11:38:17;;;;;;;3.88;0.90;;;12.00;99.90;;;;;;4949510;28;20047;-74
2023/11/05 11:41:04;;;;;;;3.00;1.30;;;12.00;99.90;;;;;;4969845;28;20047;-74
2023/11/05 11:43:51;;;;;;;3.25;1.15;;;12.00;99.90;;;;;;4966506;28;20038;-73
2023/11/05 11:46:37;;;;;;;2.83;1.00;;;12.00;99.90;;;;;;4961664;28;20038;-74
2023/11/05 11:49:28;;;;;;;4.93;1.48;;;12.00;99.90;;;;;;4980266;28;20125;-74
2023/11/05 11:52:14;;;;;;;5.70;1.60;;;12.00;99.90;;;;;;4938313;28;20046;-74
2023/11/05 11:55:00;;;;;;;3.75;1.25;;;12.10;99.90;;;;;;4972741;28;20049;-74
2023/11/05 11:57:51;;;;;;;3.42;1.20;;;12.00;99.90;;;;;;4980405;28;20483;-74
2023/11/05 12:00:37;;;;;;;3.35;1.00;;;12.00;99.90;;;;;;4960105;28;20050;-73
2023/11/05 12:03:23;;;;;;;3.33;1.13;;;12.00;99.90;;;;;;4951529;28;20570;-74
2023/11/05 12:06:10;;;;;;;3.45;1.10;;;12.00;99.90;;;;;;4982003;28;20053;-74
2023/11/05 12:08:56;;;;;;;2.28;1.02;;;12.00;99.90;;;;;;4980952;28;20054;-76
2023/11/05 12:11:42;;;;;;;3.03;1.30;;;11.90;99.90;;;;;;4965070;28;20034;-74
2023/11/05 12:14:29;;;;;;;2.28;0.65;;;11.90;99.90;;;;;;4957497;28;20042;-74
2023/11/05 12:17:15;;;;;;;2.95;1.05;;;12.20;99.90;;;;;;4991868;28;20069;-75
2023/11/05 12:20:04;;;;;;;3.08;0.70;;;12.60;99.90;;;;;;4953840;28;20129;-75
2023/11/05 12:22:50;;;;;;;2.30;0.80;;;12.40;99.90;;;;;;4980744;28;20367;-75
2023/11/05 12:25:36;;;;;;;4.68;1.15;;;12.30;99.90;;;;;;4954765;28;20038;-74
2023/11/05 12:28:22;;;;;;;2.70;1.30;;;12.20;99.90;;;;;;4981746;28;20038;-74
2023/11/05 12:31:08;;;;;;;4.13;1.30;;;12.10;99.90;;;;;;4979591;28;20125;-74
2023/11/05 12:33:55;;;;;;;5.32;1.58;;;12.20;99.90;;;;;;4969270;28;20038;-74
2023/11/05 12:36:43;;;;;;;4.90;1.70;;;12.10;99.90;;;;;;4950236;28;20046;-77
2023/11/05 12:39:29;;;;;;;3.97;1.83;;;12.20;99.90;;;;;;4989390;28;20551;-77
2023/11/05 12:42:15;;;;;;;4.35;1.48;;;12.10;99.90;;;;;;4976505;28;20054;-77
2023/11/05 12:45:03;;;;;;;5.47;1.52;;;12.30;99.90;;;;;;4964460;28;20042;-75
2023/11/05 12:47:49;;;;;;;3.70;1.60;;;12.10;99.90;;;;;;4966526;28;20038;-76
2023/11/05 12:50:35;;;;;;;4.88;1.90;;;12.10;99.90;;;;;;4965069;28;20493;-75
2023/11/05 12:53:22;;;;;;;4.70;1.95;;;12.10;99.90;;;;;;4978058;28;20058;-75
2023/11/05 12:56:09;;;;;;;6.45;2.20;;;12.10;99.90;;;;;;4975869;28;20038;-75
2023/11/05 12:58:55;;;;;;;4.97;2.08;;;12.10;99.90;;;;;;4981499;28;20086;-76
2023/11/05 13:01:41;;;;;;;5.63;2.17;;;12.10;99.90;;;;;;4986043;28;20073;-75
2023/11/05 13:04:27;;;;;;;4.80;2.17;;;12.10;99.90;;;;;;4979470;28;21259;-76
2023/11/05 13:07:12;;;;;;;6.97;1.83;;;12.10;99.90;;;;;;4961661;28;20031;-76
2023/11/05 13:09:58;;;;;;;4.60;1.60;;;12.10;99.90;;;;;;4976659;28;20050;-76
2023/11/05 13:12:47;;;;;;;2.92;1.17;;;12.20;99.90;;;;;;4965321;28;20091;-76
2023/11/05 13:15:33;;;;;;;2.67;1.02;;;12.30;99.90;;;;;;4957252;28;20042;-76
2023/11/05 13:18:21;;;;;;;2.92;1.10;;;12.50;99.90;;;;;;4971941;28;20038;-76
2023/11/05 13:21:07;;;;;;;4.33;1.17;;;12.70;99.90;;;;;;4970902;28;20046;-76
2023/11/05 13:23:54;;;;;;;2.50;1.25;;;12.60;99.90;;;;;;4994603;28;20034;-76
2023/11/05 13:26:40;;;;;;;2.67;1.45;;;12.60;99.90;;;;;;4996251;28;20035;-76
2023/11/05 13:29:26;;;;;;;4.38;1.30;;;12.60;99.90;;;;;;4963318;28;20052;-75
2023/11/05 13:32:12;;;;;;;3.47;1.23;;;12.60;99.90;;;;;;4982909;28;20046;-75
2023/11/05 13:34:58;;;;;;;3.10;1.30;;;12.50;99.90;;;;;;4983006;28;20038;-75
2023/11/05 13:37:46;;;;;;;2.70;1.40;;;12.40;99.90;;;;;;4982590;28;20356;-75
2023/11/05 13:40:33;;;;;;;2.80;1.20;;;12.50;99.90;;;;;;4978099;28;20077;-75
2023/11/05 13:43:21;;;;;;;4.15;1.40;;;12.50;99.90;;;;;;4963886;28;20042;-75
2023/11/05 13:46:07;;;;;;;5.77;1.30;;;12.60;99.90;;;;;;4960730;28;20034;-75
2023/11/05 13:48:53;;;;;;;4.97;1.70;;;12.60;99.90;;;;;;4972283;28;21094;-75
2023/11/05 13:51:39;;;;;;;5.88;1.42;;;12.50;99.90;;;;;;4969494;28;20046;-74
2023/11/05 13:54:25;;;;;;;2.97;1.40;;;12.60;99.90;;;;;;4983801;28;20034;-74
2023/11/05 13:57:11;;;;;;;3.22;1.52;;;12.90;99.90;;;;;;4982349;28;20038;-75
2023/11/05 14:00:04;;;;;;;2.55;1.45;;;12.90;99.90;;;;;;4974987;28;20646;-74
2023/11/05 14:02:54;;;;;;;3.72;1.80;;;12.80;99.90;;;;;;4958437;28;20070;-75
2023/11/05 14:05:41;;;;;;;5.10;1.63;;;12.70;99.90;;;;;;4972946;28;20075;-74
2023/11/05 14:08:27;;;;;;;3.65;1.40;;;12.70;99.90;;;;;;4960454;28;20050;-75
2023/11/05 14:11:12;;;;;;;4.13;1.58;;;12.60;99.90;;;;;;4972195;28;20042;-75
2023/11/05 14:14:05;;;;;;;2.58;1.50;;;12.50;99.90;;;;;;4972444;28;20060;-76
2023/11/05 14:16:54;;;;;;;3.10;1.13;;;12.40;99.90;;;;;;4990300;28;20125;-74
2023/11/05 14:19:43;;;;;;;2.08;0.98;;;12.40;99.90;;;;;;4964340;28;20702;-74
2023/11/05 14:22:29;;;;;;;4.18;1.38;;;12.30;99.90;;;;;;4980906;28;20034;-75
2023/11/05 14:25:15;;;;;;;2.88;1.00;;;12.40;99.90;;;;;;4976963;28;20504;-74
2023/11/05 14:28:02;;;;;;;3.80;1.10;;;12.40;99.90;;;;;;4954778;28;20047;-76
2023/11/05 14:30:54;;;;;;;5.05;1.90;;;12.30;99.90;;;;;;4976624;28;20042;-75